Time;durP1;ratioP1;P1;durP2;ratioP2;P2;SDS_P1;SDS_P2;PMS_P1;PMS_P2;Temp;Humidity;BMP_temperature;BMP_pressure;BME280_temperature;BME280_humidity;BME280_pressure;Samples;Min_cycle;Max_cycle;Signal;HPM_P1;HPM_P2
2023/03/22 00:01:12;;;;;;;0.60;0.60;;;;;;;;;;5004705;28;20181;-80
2023/03/22 00:03:38;;;;;;;0.60;0.60;;;;;;;;;;5003398;28;20204;-80
2023/03/22 00:06:04;;;;;;;0.60;0.60;;;;;;;;;;5003948;28;20636;-80
2023/03/22 00:08:30;;;;;;;0.50;0.50;;;;;;;;;;5004457;28;20615;-81
2023/03/22 00:10:56;;;;;;;0.63;0.63;;;;;;;;;;5003528;28;20169;-81
2023/03/22 00:13:22;;;;;;;0.70;0.70;;;;;;;;;;5001762;28;20201;-81
2023/03/22 00:15:48;;;;;;;0.50;0.50;;;;;;;;;;5003877;28;20650;-81
2023/03/22 00:18:18;;;;;;;0.60;0.60;;;;;;;;;;5004359;28;20181;-81
2023/03/22 00:20:51;;;;;;;0.60;0.60;;;;;;;;;;5004293;28;20239;-81
2023/03/22 00:23:17;;;;;;;0.57;0.57;;;;;;;;;;5003873;28;20691;-81
2023/03/22 00:25:44;;;;;;;0.50;0.50;;;;;;;;;;5005157;28;20208;-81
2023/03/22 00:28:10;;;;;;;0.70;0.70;;;;;;;;;;5005988;28;20173;-81
2023/03/22 00:30:36;;;;;;;0.63;0.63;;;;;;;;;;5003080;28;20245;-81
2023/03/22 00:33:02;;;;;;;0.60;0.60;;;;;;;;;;5005130;28;20204;-82
2023/03/22 00:35:28;;;;;;;0.60;0.60;;;;;;;;;;5006488;28;20187;-82
2023/03/22 00:37:54;;;;;;;0.60;0.60;;;;;;;;;;5009945;28;20193;-80
2023/03/22 00:40:20;;;;;;;0.70;0.70;;;;;;;;;;5009129;28;20216;-81
2023/03/22 00:42:46;;;;;;;0.60;0.60;;;;;;;;;;5009791;28;20193;-81
2023/03/22 00:45:12;;;;;;;0.60;0.60;;;;;;;;;;5006479;28;20180;-81
2023/03/22 00:47:38;;;;;;;0.80;0.80;;;;;;;;;;5004982;28;20204;-82
2023/03/22 00:50:05;;;;;;;0.70;0.70;;;;;;;;;;5005384;28;20196;-81
2023/03/22 00:52:31;;;;;;;0.60;0.60;;;;;;;;;;5008663;28;20288;-79
2023/03/22 00:54:57;;;;;;;0.70;0.70;;;;;;;;;;5010420;28;20188;-80
2023/03/22 00:57:23;;;;;;;0.60;0.60;;;;;;;;;;5010269;28;20671;-80
2023/03/22 00:59:49;;;;;;;0.70;0.70;;;;;;;;;;5009710;28;20220;-81
2023/03/22 01:02:16;;;;;;;0.60;0.60;;;;;;;;;;5005479;28;20200;-81
2023/03/22 01:04:45;;;;;;;0.60;0.60;;;;;;;;;;5002349;28;20192;-81
2023/03/22 01:07:16;;;;;;;0.80;0.80;;;;;;;;;;5002282;28;20316;-81
2023/03/22 01:09:42;;;;;;;0.60;0.60;;;;;;;;;;5002063;28;20177;-81
2023/03/22 01:12:08;;;;;;;0.60;0.60;;;;;;;;;;5002878;28;20185;-81
2023/03/22 01:14:34;;;;;;;0.60;0.60;;;;;;;;;;5002036;28;20207;-81
2023/03/22 01:17:00;;;;;;;0.50;0.50;;;;;;;;;;5002455;28;20189;-81
2023/03/22 01:19:26;;;;;;;0.60;0.60;;;;;;;;;;5002822;28;20213;-81
2023/03/22 01:21:52;;;;;;;0.70;0.70;;;;;;;;;;5002749;28;20176;-81
2023/03/22 01:24:19;;;;;;;0.70;0.70;;;;;;;;;;5002885;28;20255;-81
2023/03/22 01:26:45;;;;;;;0.73;0.73;;;;;;;;;;5002876;28;20177;-82
2023/03/22 01:29:11;;;;;;;0.60;0.60;;;;;;;;;;5001228;28;20252;-81
2023/03/22 01:31:36;;;;;;;0.53;0.53;;;;;;;;;;5001625;28;20239;-81
2023/03/22 01:34:03;;;;;;;0.60;0.60;;;;;;;;;;5006539;28;20181;-81
2023/03/22 01:36:29;;;;;;;0.60;0.60;;;;;;;;;;5007221;28;20647;-81
2023/03/22 01:38:55;;;;;;;0.60;0.60;;;;;;;;;;5011475;28;20180;-81
2023/03/22 01:41:21;;;;;;;0.60;0.60;;;;;;;;;;5010106;28;20189;-79
2023/03/22 01:44:05;;;;;;;0.50;0.50;;;;;;;;;;5008149;28;20295;-81
2023/03/22 01:46:31;;;;;;;0.60;0.60;;;;;;;;;;4999676;28;20193;-80
2023/03/22 01:49:00;;;;;;;0.67;0.67;;;;;;;;;;4999364;28;20177;-81
2023/03/22 01:51:26;;;;;;;0.60;0.60;;;;;;;;;;5000013;28;20188;-81
2023/03/22 01:53:54;;;;;;;0.60;0.60;;;;;;;;;;4999593;28;20194;-81
2023/03/22 01:56:22;;;;;;;0.60;0.60;;;;;;;;;;5001448;28;20177;-81
2023/03/22 01:58:49;;;;;;;0.63;0.63;;;;;;;;;;5001489;28;20200;-81
2023/03/22 02:01:15;;;;;;;0.60;0.60;;;;;;;;;;5001288;28;20188;-81
2023/03/22 02:03:54;;;;;;;0.50;0.50;;;;;;;;;;5000783;28;20271;-81
2023/03/22 02:06:20;;;;;;;0.70;0.70;;;;;;;;;;5002196;28;20192;-81
2023/03/22 02:08:47;;;;;;;0.50;0.50;;;;;;;;;;5002136;28;20188;-82
2023/03/22 02:11:15;;;;;;;0.60;0.60;;;;;;;;;;5005273;28;20177;-81
2023/03/22 02:13:47;;;;;;;0.60;0.60;;;;;;;;;;5006057;28;20193;-81
2023/03/22 02:16:19;;;;;;;0.50;0.50;;;;;;;;;;5006464;28;20173;-82
2023/03/22 02:18:58;;;;;;;0.60;0.60;;;;;;;;;;5008060;28;20182;-80
2023/03/22 02:21:24;;;;;;;0.60;0.60;;;;;;;;;;5016182;28;20173;-80
2023/03/22 02:24:09;;;;;;;0.70;0.70;;;;;;;;;;5013308;28;20204;-81
2023/03/22 02:26:49;;;;;;;0.57;0.57;;;;;;;;;;5001164;28;20232;-79
2023/03/22 02:29:32;;;;;;;0.50;0.50;;;;;;;;;;5001198;28;20260;-80
2023/03/22 02:32:12;;;;;;;0.60;0.60;;;;;;;;;;5001462;28;20181;-79
2023/03/22 02:34:44;;;;;;;0.70;0.70;;;;;;;;;;5001402;28;20704;-80
2023/03/22 02:37:16;;;;;;;0.70;0.70;;;;;;;;;;5001818;28;20177;-81
2023/03/22 02:39:57;;;;;;;0.60;0.60;;;;;;;;;;4999199;28;20213;-80
2023/03/22 02:42:42;;;;;;;0.60;0.60;;;;;;;;;;4999062;28;20244;-81
2023/03/22 02:45:14;;;;;;;0.70;0.70;;;;;;;;;;4998965;28;20207;-80
2023/03/22 02:47:40;;;;;;;0.60;0.60;;;;;;;;;;4999548;28;20608;-78
2023/03/22 02:50:21;;;;;;;0.60;0.60;;;;;;;;;;5000475;28;20197;-79
2023/03/22 02:52:53;;;;;;;0.70;0.70;;;;;;;;;;5001365;28;20201;-79
2023/03/22 02:55:51;;;;;;;0.60;0.60;;;;;;;;;;5000086;28;20239;-80
2023/03/22 02:58:21;;;;;;;0.60;0.60;;;;;;;;;;4987602;28;20181;-81
2023/03/22 03:00:49;;;;;;;0.70;0.70;;;;;;;;;;4999532;28;20224;-80
2023/03/22 03:03:17;;;;;;;0.60;0.60;;;;;;;;;;4998190;28;20198;-80
2023/03/22 03:05:45;;;;;;;0.70;0.70;;;;;;;;;;5000520;28;20543;-79
2023/03/22 03:08:12;;;;;;;0.60;0.60;;;;;;;;;;5001587;28;20261;-80
2023/03/22 03:10:39;;;;;;;0.70;0.70;;;;;;;;;;5001837;28;20189;-80
2023/03/22 03:13:05;;;;;;;0.60;0.60;;;;;;;;;;5002017;28;20197;-80
2023/03/22 03:15:32;;;;;;;0.70;0.70;;;;;;;;;;5001817;28;20270;-79
2023/03/22 03:17:58;;;;;;;0.60;0.60;;;;;;;;;;5001935;28;20188;-79
2023/03/22 03:20:33;;;;;;;0.70;0.70;;;;;;;;;;5001501;28;20212;-80
2023/03/22 03:23:08;;;;;;;0.50;0.50;;;;;;;;;;5000856;28;20212;-80
2023/03/22 03:25:48;;;;;;;0.70;0.70;;;;;;;;;;5002585;28;20242;-79
2023/03/22 03:28:14;;;;;;;0.70;0.70;;;;;;;;;;5002005;28;20264;-79
2023/03/22 03:30:53;;;;;;;0.60;0.60;;;;;;;;;;5001698;28;20181;-79
2023/03/22 03:33:20;;;;;;;0.70;0.70;;;;;;;;;;5001222;28;20216;-79
2023/03/22 03:35:55;;;;;;;0.60;0.60;;;;;;;;;;5001329;28;20185;-79
2023/03/22 03:38:24;;;;;;;0.60;0.60;;;;;;;;;;5001794;28;20536;-80
2023/03/22 03:40:52;;;;;;;0.67;0.67;;;;;;;;;;5000606;28;20240;-80
2023/03/22 03:43:19;;;;;;;0.63;0.63;;;;;;;;;;5001630;28;20197;-82
2023/03/22 03:45:45;;;;;;;0.70;0.70;;;;;;;;;;5001632;28;20177;-79
2023/03/22 03:48:15;;;;;;;0.70;0.70;;;;;;;;;;5000378;28;20723;-79
2023/03/22 03:50:41;;;;;;;0.70;0.70;;;;;;;;;;4999967;28;20177;-80
2023/03/22 03:53:07;;;;;;;0.70;0.70;;;;;;;;;;4999843;28;20201;-79
2023/03/22 03:55:33;;;;;;;0.60;0.60;;;;;;;;;;4999776;28;20193;-80
2023/03/22 03:57:59;;;;;;;0.70;0.70;;;;;;;;;;5001920;28;20268;-79
2023/03/22 04:00:25;;;;;;;0.67;0.67;;;;;;;;;;5001372;28;20322;-79
2023/03/22 04:02:51;;;;;;;0.80;0.80;;;;;;;;;;5000037;28;20197;-80
2023/03/22 04:05:17;;;;;;;0.70;0.70;;;;;;;;;;5004169;28;20237;-80
2023/03/22 04:07:43;;;;;;;0.60;0.60;;;;;;;;;;5002739;28;20193;-79
2023/03/22 04:10:09;;;;;;;0.60;0.60;;;;;;;;;;5002382;28;20178;-79
2023/03/22 04:12:35;;;;;;;0.63;0.63;;;;;;;;;;4999068;28;20193;-81
2023/03/22 04:15:01;;;;;;;0.70;0.70;;;;;;;;;;4997669;28;20258;-79
2023/03/22 04:17:28;;;;;;;0.60;0.60;;;;;;;;;;4997732;28;20177;-80
2023/03/22 04:19:55;;;;;;;0.80;0.80;;;;;;;;;;4998657;28;20208;-80
2023/03/22 04:22:21;;;;;;;0.70;0.70;;;;;;;;;;4999058;28;20177;-80
2023/03/22 04:24:48;;;;;;;0.70;0.70;;;;;;;;;;4999768;28;20204;-80
2023/03/22 04:27:15;;;;;;;0.70;0.70;;;;;;;;;;4999665;28;20177;-79
2023/03/22 04:29:47;;;;;;;0.70;0.70;;;;;;;;;;4999633;28;20177;-80
2023/03/22 04:32:25;;;;;;;0.63;0.63;;;;;;;;;;4998750;28;20184;-80
2023/03/22 04:34:51;;;;;;;0.70;0.70;;;;;;;;;;4996570;28;20584;-79
2023/03/22 04:37:18;;;;;;;0.70;0.70;;;;;;;;;;5000447;28;20264;-80
2023/03/22 04:39:44;;;;;;;0.60;0.60;;;;;;;;;;5000165;28;20219;-80
2023/03/22 04:42:11;;;;;;;0.70;0.70;;;;;;;;;;5002215;28;20535;-79
2023/03/22 04:44:37;;;;;;;0.70;0.70;;;;;;;;;;5005778;28;20194;-78
2023/03/22 04:47:03;;;;;;;0.70;0.70;;;;;;;;;;5010130;28;20189;-78
2023/03/22 04:49:30;;;;;;;0.70;0.70;;;;;;;;;;5010175;28;20275;-78
2023/03/22 04:51:56;;;;;;;0.77;0.77;;;;;;;;;;5008228;28;20206;-78
2023/03/22 04:54:23;;;;;;;0.70;0.70;;;;;;;;;;4997489;28;20296;-80
2023/03/22 04:56:49;;;;;;;0.70;0.70;;;;;;;;;;4998331;28;20173;-78
2023/03/22 04:59:19;;;;;;;0.80;0.80;;;;;;;;;;4998518;28;20224;-79
2023/03/22 05:01:45;;;;;;;0.70;0.70;;;;;;;;;;4999317;28;20177;-79
2023/03/22 05:04:11;;;;;;;0.70;0.70;;;;;;;;;;4999623;28;20614;-79
2023/03/22 05:06:37;;;;;;;0.70;0.70;;;;;;;;;;5000737;28;20185;-79
2023/03/22 05:09:03;;;;;;;0.70;0.70;;;;;;;;;;4999512;28;20191;-80
2023/03/22 05:11:29;;;;;;;0.60;0.60;;;;;;;;;;4999699;28;20621;-79
2023/03/22 05:13:55;;;;;;;0.60;0.60;;;;;;;;;;4998520;28;20669;-80
2023/03/22 05:16:21;;;;;;;0.67;0.67;;;;;;;;;;4999795;28;20667;-78
2023/03/22 05:18:48;;;;;;;0.70;0.70;;;;;;;;;;4999706;28;20201;-79
2023/03/22 05:21:16;;;;;;;0.70;0.70;;;;;;;;;;4999462;28;20275;-78
2023/03/22 05:23:43;;;;;;;0.70;0.70;;;;;;;;;;4999388;28;20263;-79
2023/03/22 05:26:09;;;;;;;0.70;0.70;;;;;;;;;;5002511;28;20208;-79
2023/03/22 05:28:36;;;;;;;0.60;0.60;;;;;;;;;;5002006;28;20181;-80
2023/03/22 05:31:02;;;;;;;0.80;0.80;;;;;;;;;;5001922;28;20188;-80
2023/03/22 05:33:28;;;;;;;0.60;0.60;;;;;;;;;;4999044;28;20188;-80
2023/03/22 05:35:55;;;;;;;0.70;0.70;;;;;;;;;;4998807;28;20283;-80
2023/03/22 05:38:24;;;;;;;0.77;0.77;;;;;;;;;;4999101;28;20648;-80
2023/03/22 05:40:50;;;;;;;0.70;0.70;;;;;;;;;;4999975;28;20272;-80
2023/03/22 05:43:16;;;;;;;0.70;0.70;;;;;;;;;;4999304;28;20579;-80
2023/03/22 05:45:42;;;;;;;0.80;0.80;;;;;;;;;;5001949;28;20532;-81
2023/03/22 05:48:08;;;;;;;0.70;0.70;;;;;;;;;;5003848;28;20703;-80
2023/03/22 05:50:34;;;;;;;0.70;0.70;;;;;;;;;;5004375;28;20192;-81
2023/03/22 05:53:02;;;;;;;0.77;0.77;;;;;;;;;;5003896;28;20193;-80
2023/03/22 05:55:30;;;;;;;0.80;0.80;;;;;;;;;;5003591;28;20179;-80
2023/03/22 05:57:56;;;;;;;0.70;0.70;;;;;;;;;;5004210;28;20178;-80
2023/03/22 06:00:23;;;;;;;0.70;0.70;;;;;;;;;;5004205;28;20213;-81
2023/03/22 06:02:51;;;;;;;0.70;0.70;;;;;;;;;;5003688;28;20220;-80
2023/03/22 06:05:17;;;;;;;0.60;0.60;;;;;;;;;;5004224;28;20668;-80
2023/03/22 06:07:43;;;;;;;0.60;0.60;;;;;;;;;;5003916;28;20177;-81
2023/03/22 06:10:11;;;;;;;0.70;0.70;;;;;;;;;;5005129;28;20209;-80
2023/03/22 06:12:37;;;;;;;0.60;0.60;;;;;;;;;;5005213;28;20243;-80
2023/03/22 06:15:04;;;;;;;0.70;0.70;;;;;;;;;;5004972;28;20181;-80
2023/03/22 06:17:30;;;;;;;0.63;0.63;;;;;;;;;;5005187;28;20181;-81
2023/03/22 06:19:56;;;;;;;0.60;0.60;;;;;;;;;;5004253;28;20217;-81
2023/03/22 06:22:22;;;;;;;0.70;0.70;;;;;;;;;;5003831;28;20253;-80
2023/03/22 06:24:49;;;;;;;0.60;0.60;;;;;;;;;;5005257;28;20268;-81
2023/03/22 06:27:16;;;;;;;0.60;0.60;;;;;;;;;;5008412;28;20189;-80
2023/03/22 06:29:42;;;;;;;0.70;0.70;;;;;;;;;;5007201;28;20177;-79
2023/03/22 06:32:08;;;;;;;0.50;0.50;;;;;;;;;;5006577;28;20177;-81
2023/03/22 06:34:35;;;;;;;0.60;0.60;;;;;;;;;;5005583;28;20193;-82
2023/03/22 06:37:01;;;;;;;0.70;0.70;;;;;;;;;;5007749;28;20205;-80
2023/03/22 06:39:27;;;;;;;0.70;0.70;;;;;;;;;;5005018;28;20300;-81
2023/03/22 06:41:53;;;;;;;0.60;0.60;;;;;;;;;;5005342;28;20173;-81
2023/03/22 06:44:21;;;;;;;0.60;0.60;;;;;;;;;;5002244;28;20258;-81
2023/03/22 06:46:47;;;;;;;0.70;0.70;;;;;;;;;;5001482;28;20540;-82
2023/03/22 06:49:13;;;;;;;0.50;0.50;;;;;;;;;;5006014;28;20177;-79
2023/03/22 06:51:39;;;;;;;0.57;0.57;;;;;;;;;;5012615;28;20178;-80
2023/03/22 06:54:05;;;;;;;0.60;0.60;;;;;;;;;;5014907;28;20284;-79
2023/03/22 06:56:31;;;;;;;0.50;0.50;;;;;;;;;;5013194;28;20161;-79
2023/03/22 06:58:57;;;;;;;0.70;0.70;;;;;;;;;;5009873;28;20179;-79
2023/03/22 07:01:23;;;;;;;0.63;0.63;;;;;;;;;;5000534;28;20201;-81
2023/03/22 07:03:49;;;;;;;0.60;0.60;;;;;;;;;;5001028;28;20189;-81
2023/03/22 07:06:15;;;;;;;0.57;0.57;;;;;;;;;;5002579;28;20181;-81
2023/03/22 07:08:41;;;;;;;0.43;0.43;;;;;;;;;;5001840;28;20177;-81
2023/03/22 07:11:08;;;;;;;0.43;0.43;;;;;;;;;;4999878;28;20193;-80
2023/03/22 07:13:33;;;;;;;0.60;0.60;;;;;;;;;;4991542;28;20209;-80
2023/03/22 07:16:00;;;;;;;0.40;0.40;;;;;;;;;;4993566;28;20298;-80
2023/03/22 07:18:27;;;;;;;0.40;0.40;;;;;;;;;;4994128;28;20181;-80
2023/03/22 07:20:53;;;;;;;0.40;0.40;;;;;;;;;;4998142;28;20298;-81
2023/03/22 07:23:19;;;;;;;0.40;0.40;;;;;;;;;;5000923;28;20827;-79
2023/03/22 07:25:46;;;;;;;0.40;0.40;;;;;;;;;;5002473;28;20205;-81
2023/03/22 07:28:12;;;;;;;0.33;0.33;;;;;;;;;;5002143;28;20240;-80
2023/03/22 07:30:39;;;;;;;0.30;0.30;;;;;;;;;;5002300;28;20179;-79
2023/03/22 07:33:06;;;;;;;0.30;0.30;;;;;;;;;;5002933;28;20201;-80
2023/03/22 07:35:32;;;;;;;0.30;0.30;;;;;;;;;;5001425;28;20181;-80
2023/03/22 07:37:58;;;;;;;0.30;0.30;;;;;;;;;;5002369;28;20174;-79
2023/03/22 07:40:24;;;;;;;0.30;0.30;;;;;;;;;;5000752;28;20228;-80
2023/03/22 07:42:50;;;;;;;0.40;0.40;;;;;;;;;;5001561;28;20562;-80
2023/03/22 07:45:17;;;;;;;0.30;0.30;;;;;;;;;;4985888;28;20717;-80
2023/03/22 07:47:43;;;;;;;0.30;0.30;;;;;;;;;;4989384;28;20192;-81
2023/03/22 07:50:13;;;;;;;0.30;0.30;;;;;;;;;;4988446;28;20187;-81
2023/03/22 07:52:39;;;;;;;0.30;0.30;;;;;;;;;;4981018;28;20221;-81
2023/03/22 07:55:06;;;;;;;0.30;0.30;;;;;;;;;;4981837;28;20708;-82
2023/03/22 07:57:32;;;;;;;0.30;0.30;;;;;;;;;;5011715;28;20205;-81
2023/03/22 07:59:58;;;;;;;0.40;0.40;;;;;;;;;;4979612;28;20237;-81
2023/03/22 08:02:24;;;;;;;0.40;0.40;;;;;;;;;;4980723;28;20178;-81
2023/03/22 08:04:51;;;;;;;0.43;0.43;;;;;;;;;;4983223;28;20236;-81
2023/03/22 08:07:20;;;;;;;0.33;0.33;;;;;;;;;;4983473;28;20182;-82
2023/03/22 08:09:46;;;;;;;0.50;0.50;;;;;;;;;;4985151;28;20578;-84
2023/03/22 08:12:14;;;;;;;0.40;0.40;;;;;;;;;;4984576;28;20193;-81
2023/03/22 08:14:40;;;;;;;0.40;0.40;;;;;;;;;;4983322;28;20206;-82
2023/03/22 08:17:06;;;;;;;0.47;0.47;;;;;;;;;;4983345;28;20193;-81
2023/03/22 08:19:32;;;;;;;0.40;0.40;;;;;;;;;;4980339;28;20304;-81
2023/03/22 08:21:59;;;;;;;0.43;0.43;;;;;;;;;;4980184;28;20166;-81
2023/03/22 08:24:26;;;;;;;0.53;0.53;;;;;;;;;;4981523;28;20198;-79
2023/03/22 08:26:52;;;;;;;0.50;0.50;;;;;;;;;;4982472;28;20178;-80
2023/03/22 08:29:22;;;;;;;0.60;0.60;;;;;;;;;;4981642;28;20198;-81
2023/03/22 08:31:48;;;;;;;0.60;0.60;;;;;;;;;;4981875;28;20182;-79
2023/03/22 08:34:14;;;;;;;0.40;0.40;;;;;;;;;;4980031;28;20301;-79
2023/03/22 08:36:40;;;;;;;0.60;0.60;;;;;;;;;;4979042;28;20182;-80
2023/03/22 08:39:07;;;;;;;0.50;0.50;;;;;;;;;;4990749;28;20568;-77
2023/03/22 08:41:33;;;;;;;0.40;0.40;;;;;;;;;;4991202;28;20185;-81
2023/03/22 08:43:59;;;;;;;0.50;0.50;;;;;;;;;;4989050;28;20207;-78
2023/03/22 08:46:25;;;;;;;0.50;0.50;;;;;;;;;;4989839;28;20620;-81
2023/03/22 08:48:51;;;;;;;0.60;0.60;;;;;;;;;;4989120;28;20249;-82
2023/03/22 08:51:18;;;;;;;0.57;0.57;;;;;;;;;;4991850;28;20188;-80
2023/03/22 08:53:44;;;;;;;0.50;0.50;;;;;;;;;;4990158;28;20757;-82
2023/03/22 08:56:10;;;;;;;0.50;0.50;;;;;;;;;;4991782;28;20181;-79
2023/03/22 08:58:36;;;;;;;0.40;0.40;;;;;;;;;;4994322;28;20174;-78
2023/03/22 09:01:02;;;;;;;0.60;0.60;;;;;;;;;;4985917;28;20232;-79
2023/03/22 09:03:28;;;;;;;0.60;0.60;;;;;;;;;;4976678;28;20627;-79
2023/03/22 09:05:54;;;;;;;0.47;0.47;;;;;;;;;;4982684;28;20173;-80
2023/03/22 09:08:20;;;;;;;0.40;0.40;;;;;;;;;;4994054;28;20648;-79
2023/03/22 09:10:50;;;;;;;0.43;0.43;;;;;;;;;;4998245;28;20177;-80
2023/03/22 09:13:16;;;;;;;0.40;0.40;;;;;;;;;;4996183;28;20197;-79
2023/03/22 09:15:43;;;;;;;0.50;0.50;;;;;;;;;;4997712;28;20272;-80
2023/03/22 09:18:10;;;;;;;0.50;0.50;;;;;;;;;;4996968;28;20181;-81
2023/03/22 09:20:36;;;;;;;0.40;0.40;;;;;;;;;;5004806;28;20227;-80
2023/03/22 09:23:02;;;;;;;0.30;0.30;;;;;;;;;;5005377;28;20223;-81
2023/03/22 09:25:28;;;;;;;0.30;0.30;;;;;;;;;;5005774;28;20185;-81
2023/03/22 09:27:54;;;;;;;0.40;0.40;;;;;;;;;;5009769;28;20191;-81
2023/03/22 09:30:20;;;;;;;0.40;0.40;;;;;;;;;;5010759;28;20180;-84
2023/03/22 09:32:46;;;;;;;0.43;0.43;;;;;;;;;;4999243;28;20202;-81
2023/03/22 09:35:12;;;;;;;0.40;0.40;;;;;;;;;;4996739;28;20212;-79
2023/03/22 09:37:38;;;;;;;0.40;0.40;;;;;;;;;;4990940;28;20177;-81
2023/03/22 09:40:05;;;;;;;0.40;0.40;;;;;;;;;;5007713;28;20641;-80
2023/03/22 09:42:43;;;;;;;0.50;0.50;;;;;;;;;;5007190;28;20193;-82
2023/03/22 09:45:20;;;;;;;0.50;0.50;;;;;;;;;;5016119;28;20176;-81
2023/03/22 09:47:48;;;;;;;0.40;0.40;;;;;;;;;;5016427;28;20257;-78
2023/03/22 09:50:22;;;;;;;0.40;0.40;;;;;;;;;;5009620;28;20185;-80
2023/03/22 09:52:49;;;;;;;0.30;0.30;;;;;;;;;;5016362;28;20588;-81
2023/03/22 09:55:36;;;;;;;0.30;0.30;;;;;;;;;;5009842;28;20684;-81
2023/03/22 09:58:11;;;;;;;0.30;0.30;;;;;;;;;;5004461;28;20185;-80
2023/03/22 10:00:45;;;;;;;0.27;0.27;;;;;;;;;;5003990;28;20208;-82
2023/03/22 10:03:15;;;;;;;0.40;0.40;;;;;;;;;;5005235;28;20200;-82
2023/03/22 10:05:47;;;;;;;0.30;0.30;;;;;;;;;;5004123;28;20644;-83
2023/03/22 10:08:21;;;;;;;0.40;0.40;;;;;;;;;;5006224;28;20272;-80
2023/03/22 10:10:47;;;;;;;0.33;0.33;;;;;;;;;;5006829;28;20177;-82
2023/03/22 10:13:22;;;;;;;0.50;0.50;;;;;;;;;;5005761;28;20189;-81
2023/03/22 10:15:51;;;;;;;0.40;0.40;;;;;;;;;;5005812;28;20181;-81
2023/03/22 10:18:21;;;;;;;0.50;0.50;;;;;;;;;;5005924;28;20173;-82
2023/03/22 10:20:57;;;;;;;0.50;0.50;;;;;;;;;;4997666;28;20704;-81
2023/03/22 10:23:36;;;;;;;0.33;0.33;;;;;;;;;;4994369;28;20216;-82
2023/03/22 10:26:02;;;;;;;0.40;0.40;;;;;;;;;;4997629;28;20196;-81
2023/03/22 10:28:40;;;;;;;0.50;0.50;;;;;;;;;;5000365;28;20975;-82
2023/03/22 10:31:06;;;;;;;0.50;0.50;;;;;;;;;;5000444;28;20182;-81
2023/03/22 10:33:32;;;;;;;0.50;0.50;;;;;;;;;;4985669;28;20289;-81
2023/03/22 10:35:59;;;;;;;0.40;0.40;;;;;;;;;;4987392;28;20210;-81
2023/03/22 10:38:27;;;;;;;0.30;0.30;;;;;;;;;;5003016;28;20226;-80
2023/03/22 10:40:55;;;;;;;0.40;0.40;;;;;;;;;;5034679;28;20216;-80
2023/03/22 10:43:21;;;;;;;0.37;0.37;;;;;;;;;;5015896;28;20250;-83
2023/03/22 10:45:48;;;;;;;0.30;0.30;;;;;;;;;;5007059;28;20177;-83
2023/03/22 10:48:24;;;;;;;0.30;0.30;;;;;;;;;;5001518;28;20680;-82
2023/03/22 10:50:50;;;;;;;0.30;0.30;;;;;;;;;;4995465;28;20189;-81
2023/03/22 10:53:37;;;;;;;0.43;0.43;;;;;;;;;;4998975;28;20208;-82
2023/03/22 10:56:03;;;;;;;0.40;0.40;;;;;;;;;;4985808;28;20268;-82
2023/03/22 10:58:30;;;;;;;0.30;0.30;;;;;;;;;;4988184;28;20231;-82
2023/03/22 11:00:58;;;;;;;0.50;0.50;;;;;;;;;;4991797;28;20651;-80
2023/03/22 11:03:26;;;;;;;0.50;0.50;;;;;;;;;;4998085;28;20266;-81
2023/03/22 11:06:06;;;;;;;0.50;0.50;;;;;;;;;;4999666;28;20170;-82
2023/03/22 11:08:38;;;;;;;0.40;0.40;;;;;;;;;;5001472;28;20183;-82
2023/03/22 11:11:14;;;;;;;0.33;0.33;;;;;;;;;;5002013;28;20240;-83
2023/03/22 11:13:40;;;;;;;0.40;0.40;;;;;;;;;;5001452;28;20203;-82
2023/03/22 11:16:06;;;;;;;0.57;0.57;;;;;;;;;;5001241;28;20550;-81
2023/03/22 11:18:33;;;;;;;0.43;0.43;;;;;;;;;;4998787;28;20272;-81
2023/03/22 11:21:06;;;;;;;0.40;0.40;;;;;;;;;;4998698;28;20237;-82
2023/03/22 11:23:33;;;;;;;0.40;0.40;;;;;;;;;;4995077;28;20189;-84
2023/03/22 11:26:05;;;;;;;0.37;0.37;;;;;;;;;;4997675;28;20181;-83
2023/03/22 11:28:35;;;;;;;0.47;0.47;;;;;;;;;;5005602;28;20181;-83
2023/03/22 11:31:01;;;;;;;0.37;0.37;;;;;;;;;;4995260;28;20195;-83
2023/03/22 11:33:28;;;;;;;0.23;0.23;;;;;;;;;;5014561;28;20287;-81
2023/03/22 11:36:07;;;;;;;0.47;0.47;;;;;;;;;;5019521;28;20565;-84
2023/03/22 11:38:37;;;;;;;0.50;0.50;;;;;;;;;;5018562;28;20172;-82
2023/03/22 11:41:08;;;;;;;0.20;0.20;;;;;;;;;;5020203;28;20892;-81
2023/03/22 11:43:35;;;;;;;0.40;0.40;;;;;;;;;;5018845;28;20590;-80
2023/03/22 11:46:01;;;;;;;0.30;0.30;;;;;;;;;;5008253;28;20184;-81
2023/03/22 11:48:30;;;;;;;0.30;0.30;;;;;;;;;;4998867;28;20239;-83
2023/03/22 11:51:03;;;;;;;0.37;0.37;;;;;;;;;;4999814;28;20185;-82
2023/03/22 11:53:31;;;;;;;0.40;0.40;;;;;;;;;;4999162;28;20288;-81
2023/03/22 11:55:57;;;;;;;0.40;0.40;;;;;;;;;;4999086;28;20240;-82
2023/03/22 11:58:43;;;;;;;0.30;0.30;;;;;;;;;;5002042;28;20216;-82
2023/03/22 12:01:13;;;;;;;0.50;0.50;;;;;;;;;;4999769;28;20240;-82
2023/03/22 12:03:41;;;;;;;0.47;0.47;;;;;;;;;;4999108;28;20567;-82
2023/03/22 12:06:12;;;;;;;0.40;0.40;;;;;;;;;;4999619;28;20173;-82
2023/03/22 12:08:41;;;;;;;0.43;0.43;;;;;;;;;;5001059;28;20256;-82
2023/03/22 12:11:14;;;;;;;0.40;0.40;;;;;;;;;;5000612;28;20265;-81
2023/03/22 12:13:42;;;;;;;0.37;0.37;;;;;;;;;;4999809;28;20231;-83
2023/03/22 12:16:11;;;;;;;0.40;0.40;;;;;;;;;;4999743;28;20177;-81
2023/03/22 12:18:56;;;;;;;0.40;0.40;;;;;;;;;;4993913;28;20349;-83
2023/03/22 12:21:22;;;;;;;0.50;0.50;;;;;;;;;;5000083;28;20216;-82
2023/03/22 12:23:48;;;;;;;0.30;0.30;;;;;;;;;;4998399;28;20185;-83
2023/03/22 12:26:15;;;;;;;0.40;0.40;;;;;;;;;;4999873;28;20185;-82
2023/03/22 12:28:57;;;;;;;0.30;0.30;;;;;;;;;;4999083;28;20173;-82
2023/03/22 12:31:26;;;;;;;0.30;0.30;;;;;;;;;;4998724;28;20188;-80
2023/03/22 12:33:54;;;;;;;0.30;0.30;;;;;;;;;;4998909;28;20201;-82
2023/03/22 12:36:23;;;;;;;0.23;0.23;;;;;;;;;;5000382;28;20185;-82
2023/03/22 12:38:50;;;;;;;0.20;0.20;;;;;;;;;;4999756;28;20185;-84
2023/03/22 12:41:31;;;;;;;0.30;0.30;;;;;;;;;;4999052;28;20695;-83
2023/03/22 12:44:02;;;;;;;0.30;0.30;;;;;;;;;;4997740;28;20223;-83
2023/03/22 12:46:34;;;;;;;0.30;0.30;;;;;;;;;;4997916;28;20208;-82
2023/03/22 12:49:03;;;;;;;0.30;0.30;;;;;;;;;;4997864;28;20174;-82
2023/03/22 12:51:29;;;;;;;0.23;0.23;;;;;;;;;;4997430;28;20177;-80
2023/03/22 12:53:56;;;;;;;0.40;0.40;;;;;;;;;;4993312;28;20193;-81
2023/03/22 12:56:39;;;;;;;0.30;0.30;;;;;;;;;;4997664;28;20192;-83
2023/03/22 12:59:07;;;;;;;0.30;0.30;;;;;;;;;;4996639;28;20184;-83
2023/03/22 13:01:36;;;;;;;0.20;0.20;;;;;;;;;;4998517;28;20552;-82
2023/03/22 13:04:21;;;;;;;0.50;0.50;;;;;;;;;;4994972;28;20201;-83
2023/03/22 13:06:50;;;;;;;0.20;0.20;;;;;;;;;;4997776;28;20169;-84
2023/03/22 13:09:18;;;;;;;0.30;0.30;;;;;;;;;;4996963;28;20178;-82
2023/03/22 13:11:45;;;;;;;0.30;0.30;;;;;;;;;;4998378;28;20177;-84
2023/03/22 13:14:12;;;;;;;0.27;0.27;;;;;;;;;;5013933;28;20192;-81
2023/03/22 13:16:50;;;;;;;0.30;0.30;;;;;;;;;;5014266;28;20165;-84
2023/03/22 13:19:18;;;;;;;0.30;0.30;;;;;;;;;;5008616;28;20196;-83
2023/03/22 13:21:47;;;;;;;0.30;0.30;;;;;;;;;;5004837;28;20182;-83
2023/03/22 13:24:14;;;;;;;0.30;0.30;;;;;;;;;;5002630;28;20220;-83
2023/03/22 13:26:48;;;;;;;0.30;0.30;;;;;;;;;;4995998;28;20236;-83
2023/03/22 13:29:19;;;;;;;0.30;0.30;;;;;;;;;;4992046;28;20208;-83
2023/03/22 13:31:51;;;;;;;0.40;0.40;;;;;;;;;;4994799;28;20204;-83
2023/03/22 13:34:30;;;;;;;0.40;0.40;;;;;;;;;;4977807;28;20193;-82
2023/03/22 13:36:56;;;;;;;0.40;0.40;;;;;;;;;;4978271;28;20185;-81
2023/03/22 13:39:26;;;;;;;0.20;0.20;;;;;;;;;;4977995;28;20244;-82
2023/03/22 13:42:01;;;;;;;0.40;0.40;;;;;;;;;;4978548;28;20273;-83
2023/03/22 13:44:36;;;;;;;0.20;0.20;;;;;;;;;;4978393;28;20201;-83
2023/03/22 13:47:02;;;;;;;0.30;0.30;;;;;;;;;;4978223;28;20252;-83
2023/03/22 13:49:45;;;;;;;0.37;0.37;;;;;;;;;;4980107;28;20174;-83
2023/03/22 13:52:44;;;;;;;0.30;0.30;;;;;;;;;;4977436;28;20236;-83
2023/03/22 13:55:34;;;;;;;0.30;0.30;;;;;;;;;;4946030;28;20621;-82
2023/03/22 13:58:01;;;;;;;0.30;0.30;;;;;;;;;;4979135;28;20237;-83
2023/03/22 14:00:30;;;;;;;0.20;0.20;;;;;;;;;;4978185;28;20252;-83
2023/03/22 14:03:00;;;;;;;0.33;0.33;;;;;;;;;;4978493;28;20198;-84
2023/03/22 14:05:31;;;;;;;0.40;0.40;;;;;;;;;;4978551;28;20724;-82
2023/03/22 14:07:59;;;;;;;0.30;0.30;;;;;;;;;;4982200;28;20174;-82
2023/03/22 14:10:44;;;;;;;0.27;0.27;;;;;;;;;;4982158;28;20634;-84
2023/03/22 14:13:22;;;;;;;0.40;0.40;;;;;;;;;;4982522;28;20252;-83
2023/03/22 14:15:50;;;;;;;0.37;0.37;;;;;;;;;;4982453;28;20188;-84
2023/03/22 14:18:30;;;;;;;0.20;0.20;;;;;;;;;;4983328;28;20178;-82
2023/03/22 14:21:00;;;;;;;0.30;0.30;;;;;;;;;;4985065;28;20205;-83
2023/03/22 14:23:28;;;;;;;0.30;0.30;;;;;;;;;;4984034;28;20253;-82
2023/03/22 14:25:59;;;;;;;0.30;0.30;;;;;;;;;;4984517;28;20186;-83
2023/03/22 14:28:36;;;;;;;0.40;0.40;;;;;;;;;;4996612;28;20189;-83
2023/03/22 14:31:03;;;;;;;0.30;0.30;;;;;;;;;;4997844;28;20197;-82
2023/03/22 14:33:29;;;;;;;0.30;0.30;;;;;;;;;;4988232;28;20186;-82
2023/03/22 14:35:57;;;;;;;0.30;0.30;;;;;;;;;;4983023;28;20181;-83
2023/03/22 14:38:28;;;;;;;0.20;0.20;;;;;;;;;;4983526;28;20182;-82
2023/03/22 14:41:09;;;;;;;0.30;0.30;;;;;;;;;;4990794;28;20213;-83
2023/03/22 14:43:35;;;;;;;0.30;0.30;;;;;;;;;;4991472;28;20205;-82
2023/03/22 14:46:04;;;;;;;0.30;0.30;;;;;;;;;;4994159;28;20185;-81
2023/03/22 14:48:34;;;;;;;0.30;0.30;;;;;;;;;;4990463;28;20193;-82
2023/03/22 14:51:02;;;;;;;0.30;0.30;;;;;;;;;;4993999;28;20212;-80
2023/03/22 14:53:29;;;;;;;0.30;0.30;;;;;;;;;;4985053;28;20849;-82